Terminal Aerodrome Forecast
Issued by NWS Charleston, WV

Home | Current Version | Previous Version | Text Only | Print | Product List | Glossary On
Versions: 1 2 3 4 5 6 7 8 9 10 11 12 13 14 15 16 17 18 19 20 21
000
FTUS41 KRLX 261731
TAFPKB
TAF
KPKB 261731Z 2618/2718 22008KT P6SM BKN045
     FM262000 21007KT P6SM VCTS BKN045CB
     FM262300 VRB04KT P6SM SCT050
     FM270900 00000KT 4SM BR SCT050
     FM271300 VRB03KT P6SM SCT050=

USA.gov is the U.S. government's official web portal to all federal, state and local government web resources and services.